Impacts METAR Board
IDs:

KCVG - Cincinnati Intl, KY, US

Updated at: 2200 UTC 25 May 2018
Potential Impact None Slight Moderate High
Time 25/10Z 25/11Z 25/12Z 25/13Z 25/14Z 25/15Z 25/16Z 25/17Z 25/18Z 25/19Z 25/20Z 25/21Z 25/22Z
Temp59 60 68 73 77 79 81 83 84 83 84 84 84
Dewpt56 56 59 58 57 59 58 56 58 57 55 55 58
Altim30.03 30.04 30.04 30.03 30.02 30.02 30.01 30.00 29.99 29.97 29.94 29.91 29.89
VIS10 10 10 10 10 10 10 10 10 10 10 10 10
CIG-- -- -- -- -- -- -- -- -- -- -- -- --
CoverFEWFEWCLRCLRCLRCLRFEWFEWFEWFEWFEWFEWFEW
FltCatVFRVFRVFRVFRVFRVFRVFRVFRVFRVFRVFRVFRVFR
WX--------------------------
WDir00001200230000220200220
WSpd0 0 0 0 3 0 6 0 4 4 3 7 5
WGst-- -- -- -- -- -- -- -- -- -- -- -- --
Raw hourly METARs
KCVG 250952Z 00000KT 10SM FEW250 15/13 A3003 RMK AO2 SLP162 T01500133
KCVG 251052Z 00000KT 10SM FEW250 16/13 A3004 RMK AO2 SLP164 T01560133
KCVG 251152Z 00000KT 10SM CLR 20/15 A3004 RMK AO2 SLP162 T02000150 10200 20139 56001
KCVG 251252Z 00000KT 10SM CLR 23/14 A3003 RMK AO2 SLP159 T02280144
KCVG 251352Z 12003KT 10SM CLR 25/14 A3002 RMK AO2 SLP155 T02500139
KCVG 251452Z 00000KT 10SM CLR 26/15 A3002 RMK AO2 SLP154 T02610150 56008
KCVG 251552Z 23006KT 10SM FEW045 27/14 A3001 RMK AO2 SLP152 T02720144
KCVG 251652Z 00000KT 10SM FEW055 28/13 A3000 RMK AO2 SLP148 T02830133
KCVG 251752Z VRB04KT 10SM FEW065 29/14 A2999 RMK AO2 SLP144 T02890144 10289 20200 58010
KCVG 251852Z VRB04KT 10SM FEW060 FEW300 28/14 A2997 RMK AO2 SLP139 T02830139
KCVG 251952Z 22003KT 10SM FEW065 FEW300 29/13 A2994 RMK AO2 SLP128 T02890128
KCVG 252052Z 20007KT 180V250 10SM FEW070 FEW300 29/13 A2991 RMK AO2 SLP117 T02890128 58026
KCVG 252152Z 22005KT 10SM FEW065 FEW300 29/14 A2989 RMK AO2 SLP113 T02890144



Page loaded:  22:11 UTC  |   03:11 PM Pacific  |   04:11 PM Mountain  |   05:11 PM Central  |   06:11 PM Eastern

 

ADVISORIES

FORECASTS

FORECASTS

OBSERVATIONS

USER TOOLS

ABOUT US